Current Weather

General Ignacio P Garcia Intl

General Ignacio P Garcia Intl, Mexico (MMHO)

Report from: Wednesday, May 29, 2024 2:40 AM CST
Current time: Wednesday, May 29, 2024 3:23 AM CST

Nearby weather – Weather history – Daily summaries
Weather forecast

Temperature22.0°C (71.6°F)
Dew point-1.0°C (30.2°F)
Winds 4 kts (2.1 m/s, 4.6 mph) North (360°)
Visibility10 mi. (16.1 km)
Clouds Sky clear
Altimeter29.92 in.Hg (1013 mB)
Relative humidity22 %
Density altitude942 ft. (287 m)
Sea-level pressure101.2 kPa (1012 mB, 29.89 in.Hg)
Remarks Pressure falling
Flight conditions Visual Meteorological Conditions
Raw dataMMHO 290840Z 36004KT 10SM SKC 22/M01 A2992 RMK SLP122 57006 916 HZY
An error has occurred. This application may no longer respond until reloaded. Reload 🗙